Time;durP1;ratioP1;P1;durP2;ratioP2;P2;SDS_P1;SDS_P2;PMS_P1;PMS_P2;Temp;Humidity;BMP_temperature;BMP_pressure;BME280_temperature;BME280_humidity;BME280_pressure;Samples;Min_cycle;Max_cycle;Signal;HPM_P1;HPM_P2
2022/11/22 00:01:26;;;;;;;;;;;16.90;40.40;15.60;98962.00;;;;5061192;28;20332;-69
2022/11/22 00:03:52;;;;;;;;;;;16.90;40.40;15.60;98963.00;;;;5063468;28;19913;-68
2022/11/22 00:06:18;;;;;;;;;;;16.90;40.40;15.60;98961.00;;;;5050311;28;19912;-68
2022/11/22 00:08:43;;;;;;;;;;;16.90;40.40;15.60;98955.00;;;;5064429;28;19935;-68
2022/11/22 00:11:09;;;;;;;;;;;16.90;40.40;15.60;98960.00;;;;5063452;28;20126;-68
2022/11/22 00:13:35;;;;;;;;;;;16.90;40.40;15.60;98942.00;;;;5065937;28;19912;-68
2022/11/22 00:16:01;;;;;;;;;;;17.00;40.40;15.60;98951.00;;;;5062294;28;19915;-68
2022/11/22 00:18:27;;;;;;;;;;;16.90;40.40;15.60;98941.00;;;;5061644;28;20011;-69
2022/11/22 00:20:54;;;;;;;;;;;16.90;40.40;15.60;98920.00;;;;5048562;28;19913;-68
2022/11/22 00:23:19;;;;;;;;;;;16.90;40.40;15.60;98936.00;;;;5058283;28;19966;-68
2022/11/22 00:25:45;;;;;;;;;;;16.90;40.40;15.60;98928.00;;;;5034190;28;19924;-68
2022/11/22 00:28:11;;;;;;;;;;;17.00;40.40;15.60;98929.00;;;;5048650;28;19908;-68
2022/11/22 00:30:36;;;;;;;;;;;16.90;40.40;15.60;98923.00;;;;5062047;28;19962;-68
2022/11/22 00:33:02;;;;;;;;;;;16.90;40.40;15.60;98917.00;;;;5047280;28;19909;-68
2022/11/22 00:35:27;;;;;;;;;;;16.90;40.40;15.60;98919.00;;;;5061992;28;19964;-68
2022/11/22 00:37:53;;;;;;;;;;;16.90;40.40;15.60;98910.00;;;;5047996;28;19912;-68
2022/11/22 00:40:19;;;;;;;;;;;16.90;40.70;15.60;98921.00;;;;5064888;28;19947;-68
2022/11/22 00:42:44;;;;;;;;;;;16.90;40.40;15.60;98920.00;;;;5064651;28;20263;-68
2022/11/22 00:45:10;;;;;;;;;;;16.90;40.40;15.60;98922.00;;;;5055769;28;19927;-68
2022/11/22 00:47:36;;;;;;;;;;;17.00;40.40;15.60;98910.00;;;;5059407;28;19909;-68
2022/11/22 00:50:02;;;;;;;;;;;16.90;40.40;15.60;98914.00;;;;5044426;28;19916;-68
2022/11/22 00:52:28;;;;;;;;;;;16.90;40.40;15.60;98903.00;;;;5047454;28;20131;-68
2022/11/22 00:54:53;;;;;;;;;;;16.90;40.40;15.60;98904.00;;;;5044059;28;19913;-68
2022/11/22 00:57:19;;;;;;;;;;;16.90;40.40;15.60;98911.00;;;;5061227;28;19931;-68
2022/11/22 00:59:45;;;;;;;;;;;16.90;40.40;15.60;98901.00;;;;5050284;28;19913;-68
2022/11/22 01:02:10;;;;;;;;;;;16.90;40.40;15.60;98903.00;;;;5060101;28;19912;-68
2022/11/22 01:04:36;;;;;;;;;;;16.90;40.40;15.60;98899.00;;;;5048264;28;19963;-68
2022/11/22 01:07:02;;;;;;;;;;;16.90;40.40;15.60;98891.00;;;;5044546;28;20278;-68
2022/11/22 01:09:27;;;;;;;;;;;16.90;40.40;15.60;98896.00;;;;5047848;28;19958;-68
2022/11/22 01:11:53;;;;;;;;;;;16.90;40.40;15.60;98895.00;;;;5037153;28;19913;-68
2022/11/22 01:14:19;;;;;;;;;;;16.90;40.40;15.60;98896.00;;;;5063493;28;19969;-68
2022/11/22 01:16:44;;;;;;;;;;;16.90;40.50;15.60;98899.00;;;;5038233;28;19920;-68
2022/11/22 01:19:10;;;;;;;;;;;16.90;41.10;15.60;98885.00;;;;5032868;28;19912;-68
2022/11/22 01:21:36;;;;;;;;;;;16.90;40.40;15.60;98893.00;;;;5040612;28;19916;-68
2022/11/22 01:24:01;;;;;;;;;;;16.90;40.40;15.60;98889.00;;;;5048348;28;19927;-68
2022/11/22 01:26:27;;;;;;;;;;;17.00;40.50;15.60;98877.00;;;;5055816;28;19916;-68
2022/11/22 01:28:53;;;;;;;;;;;16.90;40.40;15.60;98874.00;;;;5062930;28;19960;-68
2022/11/22 01:31:18;;;;;;;;;;;17.00;40.50;15.60;98886.00;;;;5063667;28;19912;-68
2022/11/22 01:33:44;;;;;;;;;;;16.90;40.40;15.60;98874.00;;;;5045935;28;19912;-68
2022/11/22 01:36:10;;;;;;;;;;;16.90;40.40;15.60;98872.00;;;;5042697;28;20293;-68
2022/11/22 01:38:35;;;;;;;;;;;17.00;40.50;15.60;98878.00;;;;5043882;28;19930;-68
2022/11/22 01:41:01;;;;;;;;;;;16.90;40.40;15.60;98881.00;;;;5047399;28;19916;-68
2022/11/22 01:43:27;;;;;;;;;;;16.90;40.50;15.60;98890.00;;;;5061251;28;20367;-68
2022/11/22 01:45:54;;;;;;;;;;;16.90;40.50;15.60;98885.00;;;;5063196;28;20251;-68
2022/11/22 01:48:28;;;;;;;;;;;16.90;40.50;15.60;98878.00;;;;5050572;28;19916;-68
2022/11/22 01:51:02;;;;;;;;;;;16.90;40.50;15.60;98882.00;;;;5047922;28;19916;-68
2022/11/22 01:53:32;;;;;;;;;;;16.90;40.50;15.60;98888.00;;;;5039486;28;19935;-68
2022/11/22 01:55:59;;;;;;;;;;;17.00;40.60;15.60;98888.00;;;;5044974;28;19986;-68
2022/11/22 01:58:24;;;;;;;;;;;16.90;40.50;15.60;98881.00;;;;5044051;28;19917;-68
2022/11/22 02:00:50;;;;;;;;;;;17.00;40.50;15.60;98878.00;;;;5046445;28;19970;-68
2022/11/22 02:03:16;;;;;;;;;;;16.90;40.50;15.60;98873.00;;;;5061232;28;19913;-68
2022/11/22 02:05:41;;;;;;;;;;;17.00;40.60;15.60;98880.00;;;;5042813;28;19916;-68
2022/11/22 02:08:10;;;;;;;;;;;17.00;40.60;15.60;98879.00;;;;5060582;28;20294;-68
2022/11/22 02:10:37;;;;;;;;;;;17.00;40.60;15.60;98879.00;;;;5025087;28;19935;-68
2022/11/22 02:13:02;;;;;;;;;;;17.00;40.60;15.60;98876.00;;;;5039981;28;20394;-68
2022/11/22 02:15:28;;;;;;;;;;;17.00;40.60;15.60;98878.00;;;;5047371;28;19920;-68
2022/11/22 02:17:56;;;;;;;;;;;17.00;40.60;15.60;98877.00;;;;5045027;28;20328;-68
2022/11/22 02:20:21;;;;;;;;;;;17.00;40.60;15.60;98867.00;;;;5058096;28;20331;-68
2022/11/22 02:23:01;;;;;;;;;;;17.00;40.60;15.70;98878.00;;;;5046167;28;19912;-68
2022/11/22 02:25:30;;;;;;;;;;;16.90;40.60;15.60;98873.00;;;;5046210;28;19916;-68
2022/11/22 02:27:55;;;;;;;;;;;17.00;40.60;15.60;98874.00;;;;5044377;28;19913;-68
2022/11/22 02:30:21;;;;;;;;;;;17.00;40.60;15.60;98880.00;;;;5041481;28;19928;-68
2022/11/22 02:32:47;;;;;;;;;;;16.90;40.60;15.60;98870.00;;;;5061413;28;19917;-68
2022/11/22 02:35:21;;;;;;;;;;;17.00;40.60;15.60;98855.00;;;;5041477;28;19916;-68
2022/11/22 02:37:52;;;;;;;;;;;17.00;40.60;15.70;98847.00;;;;5040152;28;19964;-68
2022/11/22 02:40:18;;;;;;;;;;;17.00;40.60;15.70;98846.00;;;;5045937;28;19959;-68
2022/11/22 02:42:46;;;;;;;;;;;17.00;40.60;15.70;98846.00;;;;5043099;28;19909;-68
2022/11/22 02:45:12;;;;;;;;;;;17.00;40.60;15.70;98852.00;;;;5057602;28;19920;-68
2022/11/22 02:47:38;;;;;;;;;;;17.00;40.60;15.70;98857.00;;;;5063708;28;19973;-68
2022/11/22 02:50:04;;;;;;;;;;;17.00;40.60;15.70;98854.00;;;;5037260;28;19912;-68
2022/11/22 02:52:30;;;;;;;;;;;17.00;40.70;15.70;98847.00;;;;5040725;28;19917;-68
2022/11/22 02:54:55;;;;;;;;;;;17.00;40.60;15.70;98866.00;;;;5043978;28;19927;-68
2022/11/22 02:57:21;;;;;;;;;;;17.00;40.70;15.70;98867.00;;;;5041029;28;19916;-68
2022/11/22 02:59:46;;;;;;;;;;;17.00;40.60;15.70;98880.00;;;;5040595;28;19916;-68
2022/11/22 03:02:12;;;;;;;;;;;17.00;40.70;15.70;98872.00;;;;5063106;28;19961;-68
2022/11/22 03:04:38;;;;;;;;;;;17.00;40.70;15.70;98867.00;;;;5046247;28;19920;-68
2022/11/22 03:07:04;;;;;;;;;;;17.00;40.70;15.70;98879.00;;;;5065493;28;20309;-68
2022/11/22 03:09:30;;;;;;;;;;;17.00;40.70;15.70;98881.00;;;;5045742;28;19944;-68
2022/11/22 03:11:56;;;;;;;;;;;17.00;40.70;15.70;98889.00;;;;5026196;28;19913;-68
2022/11/22 03:14:22;;;;;;;;;;;17.00;40.70;15.70;98883.00;;;;5059047;28;19913;-68
2022/11/22 03:16:48;;;;;;;;;;;17.00;40.70;15.70;98900.00;;;;5041902;28;20000;-68
2022/11/22 03:19:13;;;;;;;;;;;17.00;40.70;15.70;98896.00;;;;5046086;28;19919;-68
2022/11/22 03:21:39;;;;;;;;;;;17.00;40.70;15.70;98896.00;;;;5046810;28;20404;-68
2022/11/22 03:24:05;;;;;;;;;;;17.00;40.80;15.70;98890.00;;;;5063729;28;19924;-68
2022/11/22 03:26:31;;;;;;;;;;;17.00;40.70;15.70;98894.00;;;;5043559;28;19918;-68
2022/11/22 03:28:57;;;;;;;;;;;17.00;40.70;15.70;98892.00;;;;5049240;28;20338;-68
2022/11/22 03:31:22;;;;;;;;;;;17.00;40.80;15.70;98891.00;;;;5048443;28;19909;-68
2022/11/22 03:33:48;;;;;;;;;;;17.00;40.80;15.70;98893.00;;;;5041851;28;19944;-68
2022/11/22 03:36:14;;;;;;;;;;;17.00;40.80;15.70;98900.00;;;;5047635;28;19913;-68
2022/11/22 03:38:40;;;;;;;;;;;17.00;40.80;15.70;98910.00;;;;5044954;28;19935;-68
2022/11/22 03:41:05;;;;;;;;;;;17.00;40.80;15.70;98902.00;;;;5061189;28;19920;-68
2022/11/22 03:43:31;;;;;;;;;;;17.00;40.80;15.70;98908.00;;;;5063811;28;19917;-68
2022/11/22 03:45:57;;;;;;;;;;;17.00;40.80;15.70;98905.00;;;;5048872;28;19924;-68
2022/11/22 03:48:22;;;;;;;;;;;17.00;40.80;15.70;98910.00;;;;5064849;28;19912;-68
2022/11/22 03:50:48;;;;;;;;;;;17.00;40.80;15.70;98900.00;;;;5067855;28;19920;-68
2022/11/22 03:53:14;;;;;;;;;;;17.00;40.80;15.70;98921.00;;;;5067104;28;19974;-68
2022/11/22 03:55:39;;;;;;;;;;;17.00;40.90;15.70;98922.00;;;;5048597;28;19913;-68
2022/11/22 03:58:05;;;;;;;;;;;17.00;40.90;15.70;98917.00;;;;5043861;28;20340;-68
2022/11/22 04:00:31;;;;;;;;;;;17.00;40.90;15.70;98915.00;;;;5049640;28;19924;-68
2022/11/22 04:02:56;;;;;;;;;;;17.00;40.90;15.70;98923.00;;;;5064526;28;19912;-68
2022/11/22 04:05:22;;;;;;;;;;;17.00;40.90;15.70;98914.00;;;;5064889;28;19921;-68
2022/11/22 04:07:48;;;;;;;;;;;17.00;40.90;15.70;98917.00;;;;5062412;28;19962;-68
2022/11/22 04:10:13;;;;;;;;;;;17.00;40.90;15.70;98933.00;;;;5043004;28;19912;-68
2022/11/22 04:12:39;;;;;;;;;;;17.00;40.90;15.70;98926.00;;;;5063958;28;19916;-68
2022/11/22 04:15:05;;;;;;;;;;;17.00;41.00;15.70;98930.00;;;;5046077;28;19927;-68
2022/11/22 04:17:44;;;;;;;;;;;17.00;41.00;15.70;98926.00;;;;5042520;28;20239;-68
2022/11/22 04:22:57;;;;;;;;;;;17.00;41.00;15.70;98927.00;;;;5050720;28;19939;-68
2022/11/22 04:25:24;;;;;;;;;;;17.00;41.00;15.70;98940.00;;;;5048385;28;19916;-68
2022/11/22 04:27:49;;;;;;;;;;;17.00;41.00;15.70;98939.00;;;;5038597;28;19923;-68
2022/11/22 04:30:15;;;;;;;;;;;17.00;41.00;15.70;98935.00;;;;5043815;28;19916;-68
2022/11/22 04:32:47;;;;;;;;;;;17.00;41.10;15.70;98930.00;;;;5066156;28;19923;-68
2022/11/22 04:35:17;;;;;;;;;;;17.00;41.00;15.70;98926.00;;;;5043346;28;20373;-68
2022/11/22 04:37:49;;;;;;;;;;;17.00;41.10;15.70;98933.00;;;;5048107;28;20017;-68
2022/11/22 04:40:14;;;;;;;;;;;17.00;41.10;15.70;98940.00;;;;5047873;28;19924;-68
2022/11/22 04:45:24;;;;;;;;;;;17.00;41.10;15.70;98944.00;;;;5062051;28;19974;-68
2022/11/22 04:47:59;;;;;;;;;;;16.90;41.10;15.70;98940.00;;;;5044067;28;19913;-68
2022/11/22 04:53:12;;;;;;;;;;;17.00;41.10;15.70;98939.00;;;;5046953;28;19977;-68
2022/11/22 04:55:38;;;;;;;;;;;17.00;41.10;15.70;98945.00;;;;5044355;28;19919;-68
2022/11/22 04:58:04;;;;;;;;;;;17.10;41.20;15.70;98939.00;;;;5048753;28;19913;-68
2022/11/22 05:00:29;;;;;;;;;;;17.00;41.10;15.70;98945.00;;;;5061832;28;19913;-68
2022/11/22 05:02:55;;;;;;;;;;;17.00;41.10;15.70;98950.00;;;;5047713;28;19916;-68
2022/11/22 05:05:21;;;;;;;;;;;17.00;41.10;15.70;98947.00;;;;5046622;28;19925;-68
2022/11/22 05:07:47;;;;;;;;;;;17.00;41.20;15.70;98949.00;;;;5041489;28;19931;-68
2022/11/22 05:10:13;;;;;;;;;;;17.00;41.20;15.70;98944.00;;;;5060099;28;19916;-68
2022/11/22 05:12:42;;;;;;;;;;;17.00;41.10;15.70;98946.00;;;;5044413;28;19942;-68
2022/11/22 05:15:11;;;;;;;;;;;17.00;41.10;15.70;98941.00;;;;5044413;28;20251;-68
2022/11/22 05:17:37;;;;;;;;;;;17.00;41.20;15.70;98949.00;;;;5049027;28;20293;-68
2022/11/22 05:20:04;;;;;;;;;;;17.00;41.20;15.70;98957.00;;;;5060358;28;19919;-68
2022/11/22 05:25:14;;;;;;;;;;;17.00;41.20;15.70;98955.00;;;;5060243;28;19931;-68
2022/11/22 05:27:39;;;;;;;;;;;17.10;41.20;15.70;98941.00;;;;5062904;28;20374;-68
2022/11/22 05:30:05;;;;;;;;;;;17.00;41.20;15.70;98957.00;;;;5040794;28;20318;-68
2022/11/22 05:32:31;;;;;;;;;;;17.00;41.20;15.70;98951.00;;;;5049304;28;19923;-68
2022/11/22 05:34:57;;;;;;;;;;;17.00;41.20;15.70;98950.00;;;;5062167;28;20007;-68
2022/11/22 05:37:23;;;;;;;;;;;17.10;41.30;15.70;98946.00;;;;5047325;28;19961;-68
2022/11/22 05:39:49;;;;;;;;;;;17.00;41.20;15.80;98961.00;;;;5059251;28;19984;-68
2022/11/22 05:42:14;;;;;;;;;;;17.00;41.20;15.80;98959.00;;;;5066118;28;19912;-68
2022/11/22 05:44:40;;;;;;;;;;;17.00;41.20;15.80;98953.00;;;;5042872;28;19924;-68
2022/11/22 05:47:06;;;;;;;;;;;17.60;41.60;15.80;98953.00;;;;5065214;28;20075;-68
2022/11/22 05:49:32;;;;;;;;;;;17.10;41.30;15.80;98960.00;;;;5042882;28;20452;-68
2022/11/22 05:51:57;;;;;;;;;;;17.10;41.30;15.80;98964.00;;;;5049279;28;19912;-68
2022/11/22 05:54:23;;;;;;;;;;;17.10;41.30;15.80;98970.00;;;;5065458;28;19926;-68
2022/11/22 05:56:49;;;;;;;;;;;17.10;41.30;15.80;98974.00;;;;5040330;28;19923;-68
2022/11/22 05:59:14;;;;;;;;;;;17.10;41.30;15.80;98981.00;;;;5056157;28;20263;-68
2022/11/22 06:01:40;;;;;;;;;;;17.10;41.30;15.80;98976.00;;;;5041307;28;19912;-68
2022/11/22 06:04:06;;;;;;;;;;;17.10;41.30;15.80;98986.00;;;;5044413;28;19919;-68
2022/11/22 06:06:31;;;;;;;;;;;17.10;41.30;15.80;98980.00;;;;5046335;28;20366;-68
2022/11/22 06:08:57;;;;;;;;;;;17.10;41.30;15.80;98988.00;;;;5047241;28;19927;-68
2022/11/22 06:11:24;;;;;;;;;;;17.10;41.30;15.80;98980.00;;;;5046089;28;19966;-68
2022/11/22 06:13:54;;;;;;;;;;;17.10;41.30;15.80;98991.00;;;;5052008;28;19977;-68
2022/11/22 06:16:20;;;;;;;;;;;17.10;41.30;15.80;98989.00;;;;5042853;28;19927;-68
2022/11/22 06:18:46;;;;;;;;;;;17.10;41.40;15.80;98998.00;;;;5031899;28;19991;-68
2022/11/22 06:21:14;;;;;;;;;;;17.10;41.40;15.80;98991.00;;;;5061221;28;20370;-68
2022/11/22 06:23:39;;;;;;;;;;;17.10;41.40;15.80;98994.00;;;;5051294;28;20297;-69
2022/11/22 06:26:12;;;;;;;;;;;17.10;41.40;15.80;99009.00;;;;5041230;28;19924;-68
2022/11/22 06:28:38;;;;;;;;;;;17.10;41.40;15.80;99010.00;;;;5040108;28;19916;-68
2022/11/22 06:31:05;;;;;;;;;;;17.10;41.40;15.80;99014.00;;;;5057585;28;19919;-68
2022/11/22 06:33:31;;;;;;;;;;;17.10;41.40;15.80;99010.00;;;;5043083;28;19951;-68
2022/11/22 06:36:04;;;;;;;;;;;17.10;41.40;15.80;99006.00;;;;5045818;28;19919;-68
2022/11/22 06:38:29;;;;;;;;;;;17.10;41.50;15.80;99011.00;;;;5066023;28;19916;-68
2022/11/22 06:41:06;;;;;;;;;;;17.10;41.40;15.80;99013.00;;;;5058099;28;20318;-68
2022/11/22 06:43:32;;;;;;;;;;;17.10;41.50;15.80;99014.00;;;;5045480;28;19913;-69
2022/11/22 06:45:58;;;;;;;;;;;17.10;41.50;15.80;99022.00;;;;5062824;28;19926;-68
2022/11/22 06:48:24;;;;;;;;;;;17.10;41.50;15.80;99022.00;;;;5041868;28;19918;-69
2022/11/22 06:50:50;;;;;;;;;;;17.10;41.50;15.80;99029.00;;;;5046054;28;19917;-69
2022/11/22 06:53:15;;;;;;;;;;;17.10;41.60;15.80;99032.00;;;;5060687;28;20261;-68
2022/11/22 06:55:41;;;;;;;;;;;17.10;41.50;15.80;99038.00;;;;5034102;28;20393;-69
2022/11/22 06:58:07;;;;;;;;;;;17.10;41.50;15.80;99035.00;;;;5043325;28;19916;-69
2022/11/22 07:00:32;;;;;;;;;;;17.10;41.50;15.80;99044.00;;;;5019208;28;19917;-68
2022/11/22 07:02:58;;;;;;;;;;;17.10;41.50;15.80;99044.00;;;;5044572;28;20286;-69
2022/11/22 07:05:24;;;;;;;;;;;17.10;41.60;15.80;99041.00;;;;5064729;28;20358;-69
2022/11/22 07:07:49;;;;;;;;;;;17.10;41.50;15.80;99033.00;;;;5047476;28;19909;-69
2022/11/22 07:10:15;;;;;;;;;;;17.10;41.60;15.80;99038.00;;;;5063264;28;20328;-68
2022/11/22 07:12:41;;;;;;;;;;;17.10;41.60;15.80;99039.00;;;;5047597;28;19927;-69
2022/11/22 07:15:07;;;;;;;;;;;17.10;41.60;15.80;99049.00;;;;5064530;28;19913;-69
2022/11/22 07:17:32;;;;;;;;;;;17.10;41.60;15.80;99054.00;;;;5064424;28;20270;-69
2022/11/22 07:19:58;;;;;;;;;;;17.10;41.60;15.80;99060.00;;;;5045788;28;19916;-69
2022/11/22 07:22:24;;;;;;;;;;;17.10;42.30;15.80;99061.00;;;;5063456;28;20369;-69
2022/11/22 07:24:49;;;;;;;;;;;17.00;41.50;15.80;99061.00;;;;5063318;28;19969;-69
2022/11/22 07:27:15;;;;;;;;;;;17.10;41.60;15.80;99063.00;;;;5066524;28;19912;-69
2022/11/22 07:29:41;;;;;;;;;;;17.10;42.30;15.80;99066.00;;;;5061187;28;20370;-69
2022/11/22 07:32:06;;;;;;;;;;;17.10;41.60;15.80;99066.00;;;;5064225;28;19919;-69
2022/11/22 07:34:32;;;;;;;;;;;17.10;41.70;15.80;99065.00;;;;5063241;28;19913;-69
2022/11/22 07:36:58;;;;;;;;;;;17.00;41.60;15.80;99070.00;;;;5063008;28;20336;-69
2022/11/22 07:39:23;;;;;;;;;;;17.10;41.70;15.80;99080.00;;;;5063571;28;19916;-69
2022/11/22 07:41:49;;;;;;;;;;;17.10;41.70;15.80;99084.00;;;;5047025;28;19958;-69
2022/11/22 07:44:15;;;;;;;;;;;17.10;41.70;15.80;99082.00;;;;5046563;28;20346;-69
2022/11/22 07:46:40;;;;;;;;;;;17.10;41.70;15.80;99080.00;;;;5064638;28;19919;-69
2022/11/22 07:49:07;;;;;;;;;;;17.10;41.70;15.80;99088.00;;;;5062149;28;19912;-69
2022/11/22 07:51:33;;;;;;;;;;;17.10;41.70;15.80;99086.00;;;;5047011;28;20290;-68
2022/11/22 07:53:59;;;;;;;;;;;17.10;41.70;15.80;99094.00;;;;5066608;28;19916;-68
2022/11/22 07:56:24;;;;;;;;;;;17.10;41.70;15.80;99094.00;;;;5070956;28;20325;-68
2022/11/22 07:58:50;;;;;;;;;;;17.10;41.70;15.80;99087.00;;;;5064388;28;19958;-69
2022/11/22 08:01:16;;;;;;;;;;;17.10;41.70;15.80;99089.00;;;;5069341;28;20285;-68
2022/11/22 08:03:42;;;;;;;;;;;17.10;41.70;15.80;99096.00;;;;5065459;28;19908;-68
2022/11/22 08:06:09;;;;;;;;;;;17.10;41.70;15.80;99094.00;;;;5050373;28;19966;-68
2022/11/22 08:08:35;;;;;;;;;;;17.10;41.70;15.80;99094.00;;;;5065570;28;19984;-68
2022/11/22 08:11:00;;;;;;;;;;;17.10;41.70;15.80;99089.00;;;;5069223;28;19912;-68
2022/11/22 08:13:26;;;;;;;;;;;17.10;41.70;15.80;99085.00;;;;5049353;28;20735;-68
2022/11/22 08:15:52;;;;;;;;;;;17.10;41.70;15.80;99088.00;;;;5048207;28;19963;-68
2022/11/22 08:18:18;;;;;;;;;;;17.10;41.70;15.80;99094.00;;;;5046116;28;20337;-68
2022/11/22 08:20:43;;;;;;;;;;;17.10;41.70;15.80;99095.00;;;;5064669;28;19920;-68
2022/11/22 08:23:09;;;;;;;;;;;17.10;41.70;15.80;99096.00;;;;5066646;28;20277;-68
2022/11/22 08:25:35;;;;;;;;;;;17.10;41.70;15.80;99090.00;;;;5067017;28;19925;-68
2022/11/22 08:28:00;;;;;;;;;;;17.20;41.70;15.80;99089.00;;;;5068700;28;19908;-68
2022/11/22 08:30:26;;;;;;;;;;;17.10;41.70;15.80;99089.00;;;;5066571;28;20358;-68
2022/11/22 08:32:55;;;;;;;;;;;17.10;41.70;15.80;99086.00;;;;5066750;28;19916;-68
2022/11/22 08:35:20;;;;;;;;;;;17.10;41.70;15.80;99081.00;;;;5045485;28;19923;-68
2022/11/22 08:37:46;;;;;;;;;;;17.10;41.70;15.80;99081.00;;;;5045634;28;19916;-68
2022/11/22 08:40:12;;;;;;;;;;;17.10;41.70;15.80;99081.00;;;;5049533;28;20389;-68
2022/11/22 08:42:38;;;;;;;;;;;17.10;42.40;15.80;99084.00;;;;5070038;28;19912;-68
2022/11/22 08:45:04;;;;;;;;;;;17.10;41.70;15.80;99088.00;;;;5048414;28;19962;-68
2022/11/22 08:47:30;;;;;;;;;;;17.10;41.70;15.80;99093.00;;;;5065820;28;19921;-68
2022/11/22 08:49:55;;;;;;;;;;;17.10;41.70;15.80;99089.00;;;;5066275;28;20400;-68
2022/11/22 08:52:21;;;;;;;;;;;17.10;41.70;15.80;99086.00;;;;5050521;28;19908;-68
2022/11/22 08:54:47;;;;;;;;;;;17.10;41.70;15.80;99091.00;;;;5034335;28;19936;-68
2022/11/22 08:57:12;;;;;;;;;;;17.20;41.70;15.80;99105.00;;;;5066947;28;19908;-68
2022/11/22 08:59:38;;;;;;;;;;;17.10;41.70;15.80;99096.00;;;;5050090;28;19951;-69
2022/11/22 09:02:04;;;;;;;;;;;17.10;41.70;15.80;99116.00;;;;5050717;28;20321;-68
2022/11/22 09:04:29;;;;;;;;;;;17.20;41.70;15.90;99115.00;;;;5062961;28;19916;-68
2022/11/22 09:06:56;;;;;;;;;;;17.10;41.70;15.80;99118.00;;;;5067328;28;20440;-68
2022/11/22 09:09:21;;;;;;;;;;;17.10;41.70;15.80;99112.00;;;;5064388;28;19923;-68
2022/11/22 09:11:47;;;;;;;;;;;17.10;41.70;15.80;99120.00;;;;5069599;28;19912;-68
2022/11/22 09:14:13;;;;;;;;;;;17.10;41.70;15.80;99121.00;;;;5064820;28;19916;-69
2022/11/22 09:16:38;;;;;;;;;;;17.10;41.70;15.80;99122.00;;;;5068411;28;19919;-69
2022/11/22 09:19:04;;;;;;;;;;;17.10;41.70;15.80;99120.00;;;;5064743;28;19916;-69
2022/11/22 09:21:30;;;;;;;;;;;17.20;41.70;15.80;99117.00;;;;5065255;28;19908;-69
2022/11/22 09:23:55;;;;;;;;;;;17.10;41.70;15.80;99129.00;;;;5048635;28;19928;-69
2022/11/22 09:26:23;;;;;;;;;;;17.10;41.70;15.80;99123.00;;;;5069914;28;19916;-69
2022/11/22 09:28:48;;;;;;;;;;;17.20;41.70;15.80;99125.00;;;;5049665;28;19942;-69
2022/11/22 09:31:16;;;;;;;;;;;17.10;41.70;15.80;99130.00;;;;5065164;28;19912;-69
2022/11/22 09:33:43;;;;;;;;;;;17.20;41.80;15.80;99128.00;;;;5060817;28;19920;-69
2022/11/22 09:36:10;;;;;;;;;;;17.10;41.70;15.80;99133.00;;;;5049322;28;20369;-69
2022/11/22 09:38:36;;;;;;;;;;;17.10;41.80;15.80;99145.00;;;;5061504;28;19927;-69
2022/11/22 09:41:28;;;;;;;;;;;17.20;41.80;15.80;99138.00;;;;5048139;28;20006;-69
2022/11/22 09:44:10;;;;;;;;;;;17.10;41.80;15.80;99135.00;;;;5062575;28;19920;-69
2022/11/22 09:46:52;;;;;;;;;;;17.20;41.90;15.80;99147.00;;;;5050347;28;19956;-69
2022/11/22 09:49:45;;;;;;;;;;;17.10;41.80;15.80;99147.00;;;;5061270;28;19912;-68
2022/11/22 09:52:13;;;;;;;;;;;17.10;41.90;15.80;99136.00;;;;5063716;28;19913;-69
2022/11/22 09:54:42;;;;;;;;;;;17.10;41.80;15.80;99141.00;;;;5063249;28;20018;-68
2022/11/22 09:57:14;;;;;;;;;;;17.10;41.90;15.80;99144.00;;;;5048471;28;20054;-69
2022/11/22 09:59:40;;;;;;;;;;;17.10;41.90;15.90;99147.00;;;;5047293;28;20066;-69
2022/11/22 10:02:24;;;;;;;;;;;17.10;41.90;15.80;99147.00;;;;5045399;28;20015;-69
2022/11/22 10:04:57;;;;;;;;;;;17.10;41.90;15.80;99143.00;;;;5033562;28;20389;-69
2022/11/22 10:07:29;;;;;;;;;;;17.10;41.90;15.80;99143.00;;;;5046752;28;19916;-69
2022/11/22 10:10:21;;;;;;;;;;;17.10;41.90;15.80;99136.00;;;;5047155;28;19912;-69
2022/11/22 10:13:00;;;;;;;;;;;17.10;41.90;15.80;99139.00;;;;5050120;28;19916;-69
2022/11/22 10:15:48;;;;;;;;;;;17.10;41.90;15.80;99148.00;;;;5046718;28;20411;-69
2022/11/22 10:18:36;;;;;;;;;;;17.10;41.90;15.80;99148.00;;;;5034048;28;19908;-69
2022/11/22 10:21:01;;;;;;;;;;;17.10;42.00;15.80;99145.00;;;;5062632;28;19961;-69
2022/11/22 10:23:27;;;;;;;;;;;17.10;42.00;15.80;99139.00;;;;5065961;28;20313;-69
2022/11/22 10:26:05;;;;;;;;;;;17.10;42.00;15.80;99146.00;;;;5046875;28;19917;-67
2022/11/22 10:28:35;;;;;;;;;;;17.10;42.00;15.80;99151.00;;;;5049256;28;19912;-68
2022/11/22 10:31:40;;;;;;;;;;;17.10;42.00;15.80;99150.00;;;;5045403;28;19919;-69
2022/11/22 10:34:30;;;;;;;;;;;17.10;42.00;15.70;99152.00;;;;5061589;28;20338;-69
2022/11/22 10:37:06;;;;;;;;;;;17.10;42.10;15.70;99147.00;;;;5065139;28;19948;-69
2022/11/22 10:39:47;;;;;;;;;;;17.00;42.00;15.70;99134.00;;;;5047366;28;20389;-69
2022/11/22 10:42:25;;;;;;;;;;;17.00;42.00;15.70;99130.00;;;;5033962;28;19916;-69
2022/11/22 10:45:03;;;;;;;;;;;17.00;42.10;15.70;99131.00;;;;5064480;28;19955;-69
2022/11/22 10:47:46;;;;;;;;;;;17.00;42.10;15.70;99138.00;;;;5064178;28;20329;-68
2022/11/22 10:50:18;;;;;;;;;;;17.00;42.10;15.70;99129.00;;;;5063519;28;19912;-68
2022/11/22 10:53:20;;;;;;;;;;;17.00;42.10;15.70;99124.00;;;;5046087;28;20003;-68
2022/11/22 10:56:15;;;;;;;;;;;17.00;42.10;15.70;99118.00;;;;5046726;28;19912;-69
2022/11/22 10:59:03;;;;;;;;;;;17.00;42.10;15.70;99118.00;;;;5045405;28;19919;-68
2022/11/22 11:01:46;;;;;;;;;;;17.00;42.10;15.70;99115.00;;;;5045554;28;20294;-69
2022/11/22 11:04:12;;;;;;;;;;;17.00;42.20;15.70;99117.00;;;;5059509;28;19912;-69
2022/11/22 11:06:47;;;;;;;;;;;17.00;42.20;15.70;99116.00;;;;5046650;28;19920;-69
2022/11/22 11:09:19;;;;;;;;;;;17.00;42.10;15.70;99111.00;;;;5061715;28;19960;-69
2022/11/22 11:11:45;;;;;;;;;;;17.00;42.20;15.70;99105.00;;;;5063821;28;20335;-69
2022/11/22 11:14:27;;;;;;;;;;;17.00;42.10;15.70;99105.00;;;;5047396;28;19916;-69
2022/11/22 11:16:53;;;;;;;;;;;17.00;42.10;15.70;99096.00;;;;5045312;28;19912;-69
2022/11/22 11:19:20;;;;;;;;;;;17.00;42.20;15.70;99090.00;;;;5066159;28;20365;-69
2022/11/22 11:21:59;;;;;;;;;;;17.00;42.20;15.70;99107.00;;;;5048426;28;19916;-69
2022/11/22 11:24:29;;;;;;;;;;;17.00;42.10;15.70;99099.00;;;;5047496;28;19920;-69
2022/11/22 11:26:55;;;;;;;;;;;17.00;42.10;15.70;99094.00;;;;5048912;28;20382;-69
2022/11/22 11:29:49;;;;;;;;;;;17.00;42.20;15.70;99092.00;;;;5070692;28;19931;-69
2022/11/22 11:32:16;;;;;;;;;;;17.00;42.20;15.70;99090.00;;;;5051616;28;19916;-69
2022/11/22 11:34:55;;;;;;;;;;;17.00;42.10;15.70;99083.00;;;;5051257;28;19928;-68
2022/11/22 11:37:41;;;;;;;;;;;17.00;42.20;15.70;99092.00;;;;5050676;28;19912;-69
2022/11/22 11:40:27;;;;;;;;;;;17.00;42.10;15.70;99093.00;;;;5032896;28;20031;-69
2022/11/22 11:43:25;;;;;;;;;;;17.00;42.10;15.70;99112.00;;;;5050062;28;19915;-69
2022/11/22 11:45:51;;;;;;;;;;;17.00;42.10;15.70;99096.00;;;;5020630;28;20285;-69
2022/11/22 11:48:34;;;;;;;;;;;17.00;42.10;15.70;99095.00;;;;5067767;28;19913;-69
2022/11/22 11:51:23;;;;;;;;;;;17.00;42.10;15.70;99103.00;;;;5049951;28;20354;-69
2022/11/22 11:53:53;;;;;;;;;;;17.00;42.10;15.70;99104.00;;;;5048742;28;19962;-69
2022/11/22 11:56:37;;;;;;;;;;;17.00;42.10;15.70;99109.00;;;;5065324;28;19920;-69
2022/11/22 11:59:06;;;;;;;;;;;17.00;42.10;15.70;99106.00;;;;5070177;28;19923;-69
2022/11/22 12:01:43;;;;;;;;;;;17.00;42.10;15.70;99097.00;;;;5047916;28;19999;-69
2022/11/22 12:04:17;;;;;;;;;;;17.00;42.10;15.80;99105.00;;;;5050883;28;20001;-69
2022/11/22 12:06:43;;;;;;;;;;;17.00;42.10;15.80;99106.00;;;;5047883;28;19908;-69
2022/11/22 12:09:28;;;;;;;;;;;17.10;42.20;15.80;99101.00;;;;5050897;28;20432;-68
2022/11/22 12:11:53;;;;;;;;;;;17.10;42.10;15.80;99102.00;;;;5048651;28;20003;-68
2022/11/22 12:14:19;;;;;;;;;;;17.10;42.10;15.80;99102.00;;;;5048313;28;19916;-68
2022/11/22 12:16:49;;;;;;;;;;;17.10;42.10;15.80;99106.00;;;;5050786;28;20103;-69